sensor_id;sensor_type;location;lat;lon;timestamp;P1;durP1;ratioP1;P2;durP2;ratioP2
32319;SDS011;19080;51.750;5.888;2023-04-15T00:01:08;9.50;;;4.28;;
32319;SDS011;19080;51.750;5.888;2023-04-15T00:03:35;8.50;;;4.40;;
32319;SDS011;19080;51.750;5.888;2023-04-15T00:06:02;7.75;;;4.28;;
32319;SDS011;19080;51.750;5.888;2023-04-15T00:08:29;7.10;;;4.50;;
32319;SDS011;19080;51.750;5.888;2023-04-15T00:10:56;7.85;;;4.53;;
32319;SDS011;19080;51.750;5.888;2023-04-15T00:13:28;11.40;;;5.23;;
32319;SDS011;19080;51.750;5.888;2023-04-15T00:15:54;8.43;;;4.22;;
32319;SDS011;19080;51.750;5.888;2023-04-15T00:18:21;7.38;;;4.50;;
32319;SDS011;19080;51.750;5.888;2023-04-15T00:20:48;7.75;;;4.57;;
32319;SDS011;19080;51.750;5.888;2023-04-15T00:23:16;6.68;;;4.93;;
32319;SDS011;19080;51.750;5.888;2023-04-15T00:25:43;7.18;;;4.25;;
32319;SDS011;19080;51.750;5.888;2023-04-15T00:28:10;6.00;;;4.38;;
32319;SDS011;19080;51.750;5.888;2023-04-15T00:30:37;9.40;;;5.22;;
32319;SDS011;19080;51.750;5.888;2023-04-15T00:33:04;6.45;;;4.72;;
32319;SDS011;19080;51.750;5.888;2023-04-15T00:35:31;8.38;;;4.65;;
32319;SDS011;19080;51.750;5.888;2023-04-15T00:37:58;6.18;;;4.65;;
32319;SDS011;19080;51.750;5.888;2023-04-15T00:40:25;9.35;;;5.10;;
32319;SDS011;19080;51.750;5.888;2023-04-15T00:42:53;12.63;;;5.35;;
32319;SDS011;19080;51.750;5.888;2023-04-15T00:45:19;7.93;;;4.88;;
32319;SDS011;19080;51.750;5.888;2023-04-15T00:47:46;8.45;;;4.88;;
32319;SDS011;19080;51.750;5.888;2023-04-15T00:50:13;8.40;;;4.55;;
32319;SDS011;19080;51.750;5.888;2023-04-15T00:52:40;9.88;;;5.47;;
32319;SDS011;19080;51.750;5.888;2023-04-15T00:55:07;8.48;;;5.45;;
32319;SDS011;19080;51.750;5.888;2023-04-15T00:57:35;8.70;;;4.85;;
32319;SDS011;19080;51.750;5.888;2023-04-15T01:00:05;9.70;;;6.00;;
32319;SDS011;19080;51.750;5.888;2023-04-15T01:02:34;8.93;;;5.43;;
32319;SDS011;19080;51.750;5.888;2023-04-15T01:05:02;8.93;;;6.07;;
32319;SDS011;19080;51.750;5.888;2023-04-15T01:07:30;11.20;;;5.78;;
32319;SDS011;19080;51.750;5.888;2023-04-15T01:09:57;6.70;;;4.97;;
32319;SDS011;19080;51.750;5.888;2023-04-15T01:12:25;7.60;;;5.85;;
32319;SDS011;19080;51.750;5.888;2023-04-15T01:14:53;6.43;;;4.75;;
32319;SDS011;19080;51.750;5.888;2023-04-15T01:17:20;6.50;;;4.95;;
32319;SDS011;19080;51.750;5.888;2023-04-15T01:19:47;10.48;;;5.93;;
32319;SDS011;19080;51.750;5.888;2023-04-15T01:22:14;10.00;;;5.13;;
32319;SDS011;19080;51.750;5.888;2023-04-15T01:24:41;8.48;;;5.80;;
32319;SDS011;19080;51.750;5.888;2023-04-15T01:27:17;9.30;;;5.68;;
32319;SDS011;19080;51.750;5.888;2023-04-15T01:29:44;7.40;;;5.68;;
32319;SDS011;19080;51.750;5.888;2023-04-15T01:32:11;8.90;;;5.95;;
32319;SDS011;19080;51.750;5.888;2023-04-15T01:34:38;12.27;;;6.22;;
32319;SDS011;19080;51.750;5.888;2023-04-15T01:37:05;7.63;;;6.30;;
32319;SDS011;19080;51.750;5.888;2023-04-15T01:39:32;8.45;;;6.28;;
32319;SDS011;19080;51.750;5.888;2023-04-15T01:41:59;9.52;;;6.03;;
32319;SDS011;19080;51.750;5.888;2023-04-15T01:44:26;9.52;;;6.07;;
32319;SDS011;19080;51.750;5.888;2023-04-15T01:46:53;9.15;;;6.50;;
32319;SDS011;19080;51.750;5.888;2023-04-15T01:49:19;9.27;;;6.43;;
32319;SDS011;19080;51.750;5.888;2023-04-15T01:51:46;9.88;;;6.45;;
32319;SDS011;19080;51.750;5.888;2023-04-15T01:54:13;11.45;;;6.97;;
32319;SDS011;19080;51.750;5.888;2023-04-15T01:56:39;9.70;;;6.47;;
32319;SDS011;19080;51.750;5.888;2023-04-15T01:59:06;10.30;;;6.95;;
32319;SDS011;19080;51.750;5.888;2023-04-15T02:01:33;11.30;;;6.57;;
32319;SDS011;19080;51.750;5.888;2023-04-15T02:04:01;8.48;;;6.40;;
32319;SDS011;19080;51.750;5.888;2023-04-15T02:06:29;9.15;;;6.65;;
32319;SDS011;19080;51.750;5.888;2023-04-15T02:08:57;13.73;;;6.40;;
32319;SDS011;19080;51.750;5.888;2023-04-15T02:11:24;11.02;;;6.28;;
32319;SDS011;19080;51.750;5.888;2023-04-15T02:13:51;11.98;;;6.95;;
32319;SDS011;19080;51.750;5.888;2023-04-15T02:16:19;9.95;;;6.93;;
32319;SDS011;19080;51.750;5.888;2023-04-15T02:18:46;9.43;;;6.38;;
32319;SDS011;19080;51.750;5.888;2023-04-15T02:21:12;12.75;;;6.45;;
32319;SDS011;19080;51.750;5.888;2023-04-15T02:23:39;11.48;;;6.22;;
32319;SDS011;19080;51.750;5.888;2023-04-15T02:26:06;7.93;;;6.32;;
32319;SDS011;19080;51.750;5.888;2023-04-15T02:28:33;8.70;;;6.47;;
32319;SDS011;19080;51.750;5.888;2023-04-15T02:31:03;7.90;;;6.72;;
32319;SDS011;19080;51.750;5.888;2023-04-15T02:33:32;11.02;;;6.78;;
32319;SDS011;19080;51.750;5.888;2023-04-15T02:35:59;12.70;;;6.63;;
32319;SDS011;19080;51.750;5.888;2023-04-15T02:38:26;11.38;;;6.82;;
32319;SDS011;19080;51.750;5.888;2023-04-15T02:40:53;9.50;;;7.13;;
32319;SDS011;19080;51.750;5.888;2023-04-15T02:43:20;8.45;;;6.63;;
32319;SDS011;19080;51.750;5.888;2023-04-15T02:45:48;12.32;;;7.40;;
32319;SDS011;19080;51.750;5.888;2023-04-15T02:48:16;11.93;;;7.50;;
32319;SDS011;19080;51.750;5.888;2023-04-15T02:50:45;11.25;;;7.18;;
32319;SDS011;19080;51.750;5.888;2023-04-15T02:53:13;9.45;;;7.25;;
32319;SDS011;19080;51.750;5.888;2023-04-15T02:55:40;9.80;;;7.25;;
32319;SDS011;19080;51.750;5.888;2023-04-15T02:58:08;10.82;;;7.88;;
32319;SDS011;19080;51.750;5.888;2023-04-15T03:00:35;10.82;;;6.80;;
32319;SDS011;19080;51.750;5.888;2023-04-15T03:03:04;11.90;;;7.55;;
32319;SDS011;19080;51.750;5.888;2023-04-15T03:05:32;10.57;;;6.60;;
32319;SDS011;19080;51.750;5.888;2023-04-15T03:08:01;9.68;;;6.82;;
32319;SDS011;19080;51.750;5.888;2023-04-15T03:10:28;13.02;;;7.70;;
32319;SDS011;19080;51.750;5.888;2023-04-15T03:12:55;7.45;;;6.72;;
32319;SDS011;19080;51.750;5.888;2023-04-15T03:15:22;10.23;;;7.60;;
32319;SDS011;19080;51.750;5.888;2023-04-15T03:17:51;10.57;;;7.63;;
32319;SDS011;19080;51.750;5.888;2023-04-15T03:20:19;9.38;;;7.53;;
32319;SDS011;19080;51.750;5.888;2023-04-15T03:22:47;9.93;;;7.43;;
32319;SDS011;19080;51.750;5.888;2023-04-15T03:25:14;11.90;;;7.88;;
32319;SDS011;19080;51.750;5.888;2023-04-15T03:27:41;9.07;;;6.90;;
32319;SDS011;19080;51.750;5.888;2023-04-15T03:30:10;11.98;;;7.85;;
32319;SDS011;19080;51.750;5.888;2023-04-15T03:32:38;10.85;;;7.60;;
32319;SDS011;19080;51.750;5.888;2023-04-15T03:35:06;11.90;;;7.93;;
32319;SDS011;19080;51.750;5.888;2023-04-15T03:37:33;12.52;;;7.78;;
32319;SDS011;19080;51.750;5.888;2023-04-15T03:40:00;8.98;;;7.55;;
32319;SDS011;19080;51.750;5.888;2023-04-15T03:42:27;10.75;;;8.73;;
32319;SDS011;19080;51.750;5.888;2023-04-15T03:44:54;9.27;;;7.80;;
32319;SDS011;19080;51.750;5.888;2023-04-15T03:47:21;13.55;;;8.15;;
32319;SDS011;19080;51.750;5.888;2023-04-15T03:49:48;12.63;;;8.35;;
32319;SDS011;19080;51.750;5.888;2023-04-15T03:52:14;11.98;;;8.02;;
32319;SDS011;19080;51.750;5.888;2023-04-15T03:54:41;12.80;;;7.95;;
32319;SDS011;19080;51.750;5.888;2023-04-15T03:57:08;11.70;;;8.25;;
32319;SDS011;19080;51.750;5.888;2023-04-15T03:59:35;12.18;;;8.45;;
32319;SDS011;19080;51.750;5.888;2023-04-15T04:02:01;9.75;;;8.70;;
32319;SDS011;19080;51.750;5.888;2023-04-15T04:04:28;13.88;;;9.65;;
32319;SDS011;19080;51.750;5.888;2023-04-15T04:06:55;13.32;;;7.72;;
32319;SDS011;19080;51.750;5.888;2023-04-15T04:09:22;12.73;;;9.70;;
32319;SDS011;19080;51.750;5.888;2023-04-15T04:11:48;11.30;;;9.00;;
32319;SDS011;19080;51.750;5.888;2023-04-15T04:14:15;8.82;;;7.70;;
32319;SDS011;19080;51.750;5.888;2023-04-15T04:16:42;10.20;;;8.07;;
32319;SDS011;19080;51.750;5.888;2023-04-15T04:19:09;10.73;;;8.93;;
32319;SDS011;19080;51.750;5.888;2023-04-15T04:21:35;12.27;;;8.48;;
32319;SDS011;19080;51.750;5.888;2023-04-15T04:24:02;12.05;;;9.35;;
32319;SDS011;19080;51.750;5.888;2023-04-15T04:26:29;11.48;;;9.25;;
32319;SDS011;19080;51.750;5.888;2023-04-15T04:28:58;13.00;;;9.00;;
32319;SDS011;19080;51.750;5.888;2023-04-15T04:31:26;10.77;;;8.18;;
32319;SDS011;19080;51.750;5.888;2023-04-15T04:33:53;10.32;;;8.98;;
32319;SDS011;19080;51.750;5.888;2023-04-15T04:36:20;11.65;;;9.00;;
32319;SDS011;19080;51.750;5.888;2023-04-15T04:38:46;17.73;;;8.98;;
32319;SDS011;19080;51.750;5.888;2023-04-15T04:41:13;13.77;;;10.02;;
32319;SDS011;19080;51.750;5.888;2023-04-15T04:43:40;13.10;;;9.35;;
32319;SDS011;19080;51.750;5.888;2023-04-15T04:46:07;11.07;;;8.50;;
32319;SDS011;19080;51.750;5.888;2023-04-15T04:48:34;12.57;;;9.18;;
32319;SDS011;19080;51.750;5.888;2023-04-15T04:51:01;11.30;;;8.90;;
32319;SDS011;19080;51.750;5.888;2023-04-15T04:53:28;12.20;;;9.00;;
32319;SDS011;19080;51.750;5.888;2023-04-15T04:55:54;14.90;;;10.18;;
32319;SDS011;19080;51.750;5.888;2023-04-15T04:58:21;15.13;;;10.82;;
32319;SDS011;19080;51.750;5.888;2023-04-15T05:00:48;13.85;;;9.55;;
32319;SDS011;19080;51.750;5.888;2023-04-15T05:03:14;13.73;;;9.48;;
32319;SDS011;19080;51.750;5.888;2023-04-15T05:05:41;14.05;;;10.48;;
32319;SDS011;19080;51.750;5.888;2023-04-15T05:08:08;12.20;;;10.27;;
32319;SDS011;19080;51.750;5.888;2023-04-15T05:10:35;13.00;;;10.95;;
32319;SDS011;19080;51.750;5.888;2023-04-15T05:13:01;12.93;;;10.18;;
32319;SDS011;19080;51.750;5.888;2023-04-15T05:15:28;13.20;;;10.60;;
32319;SDS011;19080;51.750;5.888;2023-04-15T05:17:55;13.13;;;10.95;;
32319;SDS011;19080;51.750;5.888;2023-04-15T05:20:22;12.52;;;10.02;;
32319;SDS011;19080;51.750;5.888;2023-04-15T05:22:48;13.07;;;10.20;;
32319;SDS011;19080;51.750;5.888;2023-04-15T05:25:15;11.25;;;10.02;;
32319;SDS011;19080;51.750;5.888;2023-04-15T05:27:42;17.38;;;10.70;;
32319;SDS011;19080;51.750;5.888;2023-04-15T05:30:10;13.32;;;11.23;;
32319;SDS011;19080;51.750;5.888;2023-04-15T05:32:39;17.05;;;11.35;;
32319;SDS011;19080;51.750;5.888;2023-04-15T05:35:06;12.88;;;10.95;;
32319;SDS011;19080;51.750;5.888;2023-04-15T05:37:33;12.48;;;10.20;;
32319;SDS011;19080;51.750;5.888;2023-04-15T05:40:00;16.92;;;11.05;;
32319;SDS011;19080;51.750;5.888;2023-04-15T05:42:27;14.93;;;11.00;;
32319;SDS011;19080;51.750;5.888;2023-04-15T05:44:54;13.38;;;10.35;;
32319;SDS011;19080;51.750;5.888;2023-04-15T05:47:21;13.57;;;10.60;;
32319;SDS011;19080;51.750;5.888;2023-04-15T05:49:47;13.82;;;10.73;;
32319;SDS011;19080;51.750;5.888;2023-04-15T05:52:14;12.60;;;10.68;;
32319;SDS011;19080;51.750;5.888;2023-04-15T05:54:40;13.23;;;10.98;;
32319;SDS011;19080;51.750;5.888;2023-04-15T05:57:07;14.18;;;9.95;;
32319;SDS011;19080;51.750;5.888;2023-04-15T05:59:33;12.05;;;9.93;;
32319;SDS011;19080;51.750;5.888;2023-04-15T06:02:00;13.90;;;9.60;;
32319;SDS011;19080;51.750;5.888;2023-04-15T06:04:27;11.60;;;9.50;;
32319;SDS011;19080;51.750;5.888;2023-04-15T06:06:54;13.82;;;10.48;;
32319;SDS011;19080;51.750;5.888;2023-04-15T06:09:20;12.82;;;9.60;;
32319;SDS011;19080;51.750;5.888;2023-04-15T06:11:48;12.77;;;10.15;;
32319;SDS011;19080;51.750;5.888;2023-04-15T06:14:14;17.92;;;10.43;;
32319;SDS011;19080;51.750;5.888;2023-04-15T06:16:44;13.88;;;10.27;;
32319;SDS011;19080;51.750;5.888;2023-04-15T06:19:10;12.25;;;9.65;;
32319;SDS011;19080;51.750;5.888;2023-04-15T06:21:37;11.98;;;10.10;;
32319;SDS011;19080;51.750;5.888;2023-04-15T06:24:04;11.32;;;9.73;;
32319;SDS011;19080;51.750;5.888;2023-04-15T06:26:31;13.18;;;9.70;;
32319;SDS011;19080;51.750;5.888;2023-04-15T06:28:58;11.00;;;9.57;;
32319;SDS011;19080;51.750;5.888;2023-04-15T06:31:25;11.88;;;9.90;;
32319;SDS011;19080;51.750;5.888;2023-04-15T06:33:52;13.77;;;10.75;;
32319;SDS011;19080;51.750;5.888;2023-04-15T06:36:19;11.13;;;10.02;;
32319;SDS011;19080;51.750;5.888;2023-04-15T06:38:46;12.65;;;9.65;;
32319;SDS011;19080;51.750;5.888;2023-04-15T06:41:12;12.40;;;9.70;;
32319;SDS011;19080;51.750;5.888;2023-04-15T06:43:39;11.80;;;9.27;;
32319;SDS011;19080;51.750;5.888;2023-04-15T06:46:06;11.48;;;9.85;;
32319;SDS011;19080;51.750;5.888;2023-04-15T06:48:32;10.65;;;9.25;;
32319;SDS011;19080;51.750;5.888;2023-04-15T06:50:59;14.52;;;10.10;;
32319;SDS011;19080;51.750;5.888;2023-04-15T06:53:26;15.02;;;9.50;;
32319;SDS011;19080;51.750;5.888;2023-04-15T06:55:55;12.88;;;9.68;;
32319;SDS011;19080;51.750;5.888;2023-04-15T06:58:22;13.35;;;9.40;;
32319;SDS011;19080;51.750;5.888;2023-04-15T07:00:49;15.05;;;9.98;;
32319;SDS011;19080;51.750;5.888;2023-04-15T07:03:15;14.25;;;9.90;;
32319;SDS011;19080;51.750;5.888;2023-04-15T07:05:43;12.80;;;9.93;;
32319;SDS011;19080;51.750;5.888;2023-04-15T07:08:10;10.30;;;8.55;;
32319;SDS011;19080;51.750;5.888;2023-04-15T07:10:36;12.25;;;10.15;;
32319;SDS011;19080;51.750;5.888;2023-04-15T07:13:03;13.10;;;9.93;;
32319;SDS011;19080;51.750;5.888;2023-04-15T07:15:30;13.82;;;10.05;;
32319;SDS011;19080;51.750;5.888;2023-04-15T07:17:57;14.52;;;11.10;;
32319;SDS011;19080;51.750;5.888;2023-04-15T07:20:24;12.20;;;9.88;;
32319;SDS011;19080;51.750;5.888;2023-04-15T07:22:51;14.73;;;10.75;;
32319;SDS011;19080;51.750;5.888;2023-04-15T07:25:18;12.65;;;10.15;;
32319;SDS011;19080;51.750;5.888;2023-04-15T07:27:45;12.55;;;8.93;;
32319;SDS011;19080;51.750;5.888;2023-04-15T07:30:11;11.10;;;9.80;;
32319;SDS011;19080;51.750;5.888;2023-04-15T07:32:38;14.30;;;10.45;;
32319;SDS011;19080;51.750;5.888;2023-04-15T07:35:05;11.82;;;9.35;;
32319;SDS011;19080;51.750;5.888;2023-04-15T07:37:34;11.45;;;9.95;;
32319;SDS011;19080;51.750;5.888;2023-04-15T07:40:01;11.43;;;9.30;;
32319;SDS011;19080;51.750;5.888;2023-04-15T07:42:32;14.73;;;9.55;;
32319;SDS011;19080;51.750;5.888;2023-04-15T07:44:59;14.02;;;9.90;;
32319;SDS011;19080;51.750;5.888;2023-04-15T07:47:26;12.23;;;9.57;;
32319;SDS011;19080;51.750;5.888;2023-04-15T07:49:53;13.77;;;9.85;;
32319;SDS011;19080;51.750;5.888;2023-04-15T07:52:20;12.05;;;9.73;;
32319;SDS011;19080;51.750;5.888;2023-04-15T07:54:46;12.20;;;9.75;;
32319;SDS011;19080;51.750;5.888;2023-04-15T07:57:13;11.43;;;9.38;;
32319;SDS011;19080;51.750;5.888;2023-04-15T07:59:40;10.40;;;9.05;;
32319;SDS011;19080;51.750;5.888;2023-04-15T08:02:07;12.02;;;9.52;;
32319;SDS011;19080;51.750;5.888;2023-04-15T08:04:33;10.45;;;8.90;;
32319;SDS011;19080;51.750;5.888;2023-04-15T08:07:01;9.27;;;7.78;;
32319;SDS011;19080;51.750;5.888;2023-04-15T08:09:29;10.40;;;8.10;;
32319;SDS011;19080;51.750;5.888;2023-04-15T08:11:55;9.48;;;7.38;;
32319;SDS011;19080;51.750;5.888;2023-04-15T08:14:23;11.77;;;8.23;;
32319;SDS011;19080;51.750;5.888;2023-04-15T08:16:49;10.35;;;8.15;;
32319;SDS011;19080;51.750;5.888;2023-04-15T08:19:16;7.50;;;6.68;;
32319;SDS011;19080;51.750;5.888;2023-04-15T08:21:43;9.50;;;6.32;;
32319;SDS011;19080;51.750;5.888;2023-04-15T08:24:12;6.95;;;6.25;;
32319;SDS011;19080;51.750;5.888;2023-04-15T08:26:38;7.85;;;6.68;;
32319;SDS011;19080;51.750;5.888;2023-04-15T08:29:05;7.43;;;6.68;;
32319;SDS011;19080;51.750;5.888;2023-04-15T08:31:32;7.30;;;6.60;;
32319;SDS011;19080;51.750;5.888;2023-04-15T08:33:59;8.20;;;6.95;;
32319;SDS011;19080;51.750;5.888;2023-04-15T08:36:25;8.00;;;6.93;;
32319;SDS011;19080;51.750;5.888;2023-04-15T08:38:52;8.65;;;7.05;;
32319;SDS011;19080;51.750;5.888;2023-04-15T08:41:25;6.55;;;5.93;;
32319;SDS011;19080;51.750;5.888;2023-04-15T08:44:00;6.85;;;6.20;;
32319;SDS011;19080;51.750;5.888;2023-04-15T08:46:29;8.13;;;5.70;;
32319;SDS011;19080;51.750;5.888;2023-04-15T08:48:57;7.35;;;5.68;;
32319;SDS011;19080;51.750;5.888;2023-04-15T08:51:24;6.82;;;6.03;;
32319;SDS011;19080;51.750;5.888;2023-04-15T08:53:52;6.20;;;5.30;;
32319;SDS011;19080;51.750;5.888;2023-04-15T08:56:19;7.90;;;5.57;;
32319;SDS011;19080;51.750;5.888;2023-04-15T08:58:50;5.65;;;4.90;;
32319;SDS011;19080;51.750;5.888;2023-04-15T09:01:17;6.82;;;5.32;;
32319;SDS011;19080;51.750;5.888;2023-04-15T09:03:44;5.85;;;5.25;;
32319;SDS011;19080;51.750;5.888;2023-04-15T09:06:15;5.88;;;5.28;;
32319;SDS011;19080;51.750;5.888;2023-04-15T09:08:42;5.25;;;4.75;;
32319;SDS011;19080;51.750;5.888;2023-04-15T09:11:10;6.47;;;4.43;;
32319;SDS011;19080;51.750;5.888;2023-04-15T09:13:36;5.55;;;4.47;;
32319;SDS011;19080;51.750;5.888;2023-04-15T09:16:06;4.93;;;4.43;;
32319;SDS011;19080;51.750;5.888;2023-04-15T09:18:34;4.80;;;4.20;;
32319;SDS011;19080;51.750;5.888;2023-04-15T09:21:14;5.63;;;3.88;;
32319;SDS011;19080;51.750;5.888;2023-04-15T09:24:00;5.03;;;4.10;;
32319;SDS011;19080;51.750;5.888;2023-04-15T09:26:38;4.28;;;3.88;;
32319;SDS011;19080;51.750;5.888;2023-04-15T09:29:06;4.40;;;3.80;;
32319;SDS011;19080;51.750;5.888;2023-04-15T09:31:37;4.35;;;3.95;;
32319;SDS011;19080;51.750;5.888;2023-04-15T09:34:05;5.22;;;3.90;;
32319;SDS011;19080;51.750;5.888;2023-04-15T09:39:13;7.03;;;4.20;;
32319;SDS011;19080;51.750;5.888;2023-04-15T09:41:39;4.43;;;3.60;;
32319;SDS011;19080;51.750;5.888;2023-04-15T09:44:06;4.93;;;3.20;;
32319;SDS011;19080;51.750;5.888;2023-04-15T09:46:47;3.22;;;2.92;;
32319;SDS011;19080;51.750;5.888;2023-04-15T09:49:14;3.88;;;3.13;;
32319;SDS011;19080;51.750;5.888;2023-04-15T09:51:41;5.55;;;3.67;;
32319;SDS011;19080;51.750;5.888;2023-04-15T09:54:23;3.78;;;3.45;;
32319;SDS011;19080;51.750;5.888;2023-04-15T09:56:49;4.57;;;3.38;;
32319;SDS011;19080;51.750;5.888;2023-04-15T09:59:16;3.30;;;3.00;;
32319;SDS011;19080;51.750;5.888;2023-04-15T10:01:44;4.43;;;3.70;;
32319;SDS011;19080;51.750;5.888;2023-04-15T10:04:12;3.60;;;3.30;;
32319;SDS011;19080;51.750;5.888;2023-04-15T10:06:39;3.90;;;2.83;;
32319;SDS011;19080;51.750;5.888;2023-04-15T10:09:06;4.82;;;3.45;;
32319;SDS011;19080;51.750;5.888;2023-04-15T10:11:33;3.83;;;3.42;;
32319;SDS011;19080;51.750;5.888;2023-04-15T10:14:00;4.22;;;3.60;;
32319;SDS011;19080;51.750;5.888;2023-04-15T10:16:28;5.00;;;3.20;;
32319;SDS011;19080;51.750;5.888;2023-04-15T10:18:59;4.78;;;3.30;;
32319;SDS011;19080;51.750;5.888;2023-04-15T10:21:27;4.40;;;3.25;;
32319;SDS011;19080;51.750;5.888;2023-04-15T10:23:56;4.25;;;3.20;;
32319;SDS011;19080;51.750;5.888;2023-04-15T10:26:24;4.07;;;3.22;;
32319;SDS011;19080;51.750;5.888;2023-04-15T10:28:52;3.50;;;3.20;;
32319;SDS011;19080;51.750;5.888;2023-04-15T10:31:19;3.60;;;3.28;;
32319;SDS011;19080;51.750;5.888;2023-04-15T10:33:47;5.93;;;3.70;;
32319;SDS011;19080;51.750;5.888;2023-04-15T10:36:15;4.45;;;3.85;;
32319;SDS011;19080;51.750;5.888;2023-04-15T10:38:44;3.92;;;3.53;;
32319;SDS011;19080;51.750;5.888;2023-04-15T10:41:16;9.45;;;4.65;;
32319;SDS011;19080;51.750;5.888;2023-04-15T10:43:54;6.32;;;3.88;;
32319;SDS011;19080;51.750;5.888;2023-04-15T10:46:24;4.72;;;4.18;;
32319;SDS011;19080;51.750;5.888;2023-04-15T10:49:09;6.07;;;3.15;;
32319;SDS011;19080;51.750;5.888;2023-04-15T10:51:43;4.15;;;3.33;;
32319;SDS011;19080;51.750;5.888;2023-04-15T10:56:50;5.53;;;3.80;;
32319;SDS011;19080;51.750;5.888;2023-04-15T10:59:33;3.50;;;2.97;;
32319;SDS011;19080;51.750;5.888;2023-04-15T11:02:03;3.10;;;2.80;;
32319;SDS011;19080;51.750;5.888;2023-04-15T11:07:32;4.28;;;2.92;;
32319;SDS011;19080;51.750;5.888;2023-04-15T11:10:00;2.63;;;2.42;;
32319;SDS011;19080;51.750;5.888;2023-04-15T11:12:33;4.72;;;2.80;;
32319;SDS011;19080;51.750;5.888;2023-04-15T11:17:54;2.92;;;2.63;;
32319;SDS011;19080;51.750;5.888;2023-04-15T11:20:22;3.55;;;2.25;;
32319;SDS011;19080;51.750;5.888;2023-04-15T11:22:49;2.55;;;2.35;;
32319;SDS011;19080;51.750;5.888;2023-04-15T11:25:27;2.55;;;2.35;;
32319;SDS011;19080;51.750;5.888;2023-04-15T11:27:55;3.05;;;2.63;;
32319;SDS011;19080;51.750;5.888;2023-04-15T11:30:26;2.63;;;2.42;;
32319;SDS011;19080;51.750;5.888;2023-04-15T11:32:59;3.22;;;2.70;;
32319;SDS011;19080;51.750;5.888;2023-04-15T11:35:34;4.30;;;2.65;;
32319;SDS011;19080;51.750;5.888;2023-04-15T11:38:02;2.80;;;2.50;;
32319;SDS011;19080;51.750;5.888;2023-04-15T11:40:31;4.28;;;2.63;;
32319;SDS011;19080;51.750;5.888;2023-04-15T11:48:18;4.32;;;2.30;;
32319;SDS011;19080;51.750;5.888;2023-04-15T11:50:51;2.45;;;2.00;;
32319;SDS011;19080;51.750;5.888;2023-04-15T11:53:23;3.45;;;2.15;;
32319;SDS011;19080;51.750;5.888;2023-04-15T11:55:51;2.17;;;1.83;;
32319;SDS011;19080;51.750;5.888;2023-04-15T11:58:20;3.83;;;2.38;;
32319;SDS011;19080;51.750;5.888;2023-04-15T12:00:52;3.58;;;2.47;;
32319;SDS011;19080;51.750;5.888;2023-04-15T12:03:21;3.60;;;1.90;;
32319;SDS011;19080;51.750;5.888;2023-04-15T12:06:02;4.32;;;2.03;;
32319;SDS011;19080;51.750;5.888;2023-04-15T12:08:55;2.55;;;1.80;;
32319;SDS011;19080;51.750;5.888;2023-04-15T12:14:35;2.00;;;1.80;;
32319;SDS011;19080;51.750;5.888;2023-04-15T12:16:52;2.55;;;1.60;;
32319;SDS011;19080;51.750;5.888;2023-04-15T12:19:45;1.95;;;1.70;;
32319;SDS011;19080;51.750;5.888;2023-04-15T12:22:11;3.40;;;1.95;;
32319;SDS011;19080;51.750;5.888;2023-04-15T12:24:40;3.15;;;1.50;;
32319;SDS011;19080;51.750;5.888;2023-04-15T12:27:12;1.80;;;1.50;;
32319;SDS011;19080;51.750;5.888;2023-04-15T12:29:41;1.60;;;1.50;;
32319;SDS011;19080;51.750;5.888;2023-04-15T12:37:07;2.17;;;1.52;;
32319;SDS011;19080;51.750;5.888;2023-04-15T12:39:36;3.80;;;1.10;;
32319;SDS011;19080;51.750;5.888;2023-04-15T12:42:06;3.45;;;1.23;;
32319;SDS011;19080;51.750;5.888;2023-04-15T12:44:34;1.88;;;1.17;;
32319;SDS011;19080;51.750;5.888;2023-04-15T12:47:01;1.77;;;1.30;;
32319;SDS011;19080;51.750;5.888;2023-04-15T12:49:29;1.63;;;1.00;;
32319;SDS011;19080;51.750;5.888;2023-04-15T12:51:58;4.38;;;1.60;;
32319;SDS011;19080;51.750;5.888;2023-04-15T12:54:27;1.90;;;1.10;;
32319;SDS011;19080;51.750;5.888;2023-04-15T12:56:55;2.00;;;1.15;;
32319;SDS011;19080;51.750;5.888;2023-04-15T12:59:23;1.48;;;1.00;;
32319;SDS011;19080;51.750;5.888;2023-04-15T13:01:50;2.00;;;1.13;;
32319;SDS011;19080;51.750;5.888;2023-04-15T13:04:19;2.08;;;1.30;;
32319;SDS011;19080;51.750;5.888;2023-04-15T13:06:46;1.95;;;0.98;;
32319;SDS011;19080;51.750;5.888;2023-04-15T13:09:13;2.42;;;1.00;;
32319;SDS011;19080;51.750;5.888;2023-04-15T13:11:40;1.88;;;1.25;;
32319;SDS011;19080;51.750;5.888;2023-04-15T13:14:08;1.48;;;1.00;;
32319;SDS011;19080;51.750;5.888;2023-04-15T13:16:37;2.53;;;1.30;;
32319;SDS011;19080;51.750;5.888;2023-04-15T13:19:04;3.78;;;1.67;;
32319;SDS011;19080;51.750;5.888;2023-04-15T13:21:30;1.75;;;1.13;;
32319;SDS011;19080;51.750;5.888;2023-04-15T13:24:00;1.90;;;1.20;;
32319;SDS011;19080;51.750;5.888;2023-04-15T13:26:27;2.90;;;1.55;;
32319;SDS011;19080;51.750;5.888;2023-04-15T13:28:54;2.38;;;1.30;;
32319;SDS011;19080;51.750;5.888;2023-04-15T13:31:21;3.72;;;1.90;;
32319;SDS011;19080;51.750;5.888;2023-04-15T13:33:48;4.80;;;2.20;;
32319;SDS011;19080;51.750;5.888;2023-04-15T13:36:14;2.88;;;1.70;;
32319;SDS011;19080;51.750;5.888;2023-04-15T13:38:41;3.15;;;1.45;;
32319;SDS011;19080;51.750;5.888;2023-04-15T13:41:08;2.83;;;1.65;;
32319;SDS011;19080;51.750;5.888;2023-04-15T13:43:34;3.92;;;1.60;;
32319;SDS011;19080;51.750;5.888;2023-04-15T13:46:01;4.20;;;1.58;;
32319;SDS011;19080;51.750;5.888;2023-04-15T13:48:28;3.22;;;2.28;;
32319;SDS011;19080;51.750;5.888;2023-04-15T13:50:55;2.45;;;1.30;;
32319;SDS011;19080;51.750;5.888;2023-04-15T13:53:22;1.95;;;0.93;;
32319;SDS011;19080;51.750;5.888;2023-04-15T13:56:07;4.18;;;1.20;;
32319;SDS011;19080;51.750;5.888;2023-04-15T13:58:34;2.40;;;1.02;;
32319;SDS011;19080;51.750;5.888;2023-04-15T14:01:02;2.30;;;1.20;;
32319;SDS011;19080;51.750;5.888;2023-04-15T14:03:31;0.80;;;0.80;;
32319;SDS011;19080;51.750;5.888;2023-04-15T14:05:59;1.40;;;0.75;;
32319;SDS011;19080;51.750;5.888;2023-04-15T14:08:25;2.25;;;1.15;;
32319;SDS011;19080;51.750;5.888;2023-04-15T14:10:52;1.88;;;1.10;;
32319;SDS011;19080;51.750;5.888;2023-04-15T14:13:19;2.03;;;1.02;;
32319;SDS011;19080;51.750;5.888;2023-04-15T14:15:45;2.75;;;1.00;;
32319;SDS011;19080;51.750;5.888;2023-04-15T14:18:12;2.10;;;1.00;;
32319;SDS011;19080;51.750;5.888;2023-04-15T14:20:40;3.88;;;0.90;;
32319;SDS011;19080;51.750;5.888;2023-04-15T14:23:07;1.17;;;0.70;;
32319;SDS011;19080;51.750;5.888;2023-04-15T14:25:33;1.02;;;0.90;;
32319;SDS011;19080;51.750;5.888;2023-04-15T14:28:01;2.60;;;1.00;;
32319;SDS011;19080;51.750;5.888;2023-04-15T14:30:28;1.30;;;1.17;;
32319;SDS011;19080;51.750;5.888;2023-04-15T14:32:55;2.40;;;1.05;;
32319;SDS011;19080;51.750;5.888;2023-04-15T14:35:22;1.52;;;0.98;;
32319;SDS011;19080;51.750;5.888;2023-04-15T14:37:54;2.75;;;0.80;;
32319;SDS011;19080;51.750;5.888;2023-04-15T14:40:21;1.27;;;1.10;;
32319;SDS011;19080;51.750;5.888;2023-04-15T14:42:48;1.85;;;1.05;;
32319;SDS011;19080;51.750;5.888;2023-04-15T14:45:15;1.60;;;1.00;;
32319;SDS011;19080;51.750;5.888;2023-04-15T14:47:42;3.40;;;0.80;;
32319;SDS011;19080;51.750;5.888;2023-04-15T14:50:16;2.10;;;0.90;;
32319;SDS011;19080;51.750;5.888;2023-04-15T14:52:43;5.07;;;1.40;;
32319;SDS011;19080;51.750;5.888;2023-04-15T14:55:10;3.55;;;1.60;;
32319;SDS011;19080;51.750;5.888;2023-04-15T14:57:41;0.98;;;0.70;;
32319;SDS011;19080;51.750;5.888;2023-04-15T15:00:09;3.30;;;2.03;;
32319;SDS011;19080;51.750;5.888;2023-04-15T15:02:42;2.05;;;1.20;;
32319;SDS011;19080;51.750;5.888;2023-04-15T15:05:09;3.83;;;0.95;;
32319;SDS011;19080;51.750;5.888;2023-04-15T15:07:38;2.58;;;0.93;;
32319;SDS011;19080;51.750;5.888;2023-04-15T15:10:06;2.55;;;0.82;;